sensor_id;sensor_type;location;lat;lon;timestamp;pressure;altitude;pressure_sealevel;temperature;humidity
54329;BME280;40710;51.120;13.136;2023-04-25T00:01:14;98576.69;;;12.23;57.40
54329;BME280;40710;51.120;13.136;2023-04-25T00:03:39;98572.22;;;12.36;56.78
54329;BME280;40710;51.120;13.136;2023-04-25T00:06:04;98576.28;;;11.66;58.14
54329;BME280;40710;51.120;13.136;2023-04-25T00:08:29;98578.41;;;12.11;57.65
54329;BME280;40710;51.120;13.136;2023-04-25T00:10:54;98585.19;;;10.87;60.78
54329;BME280;40710;51.120;13.136;2023-04-25T00:13:19;98583.56;;;11.24;59.94
54329;BME280;40710;51.120;13.136;2023-04-25T00:15:44;98578.81;;;11.55;58.31
54329;BME280;40710;51.120;13.136;2023-04-25T00:18:12;98576.81;;;11.07;59.06
54329;BME280;40710;51.120;13.136;2023-04-25T00:20:37;98564.56;;;11.96;57.40
54329;BME280;40710;51.120;13.136;2023-04-25T00:23:01;98563.66;;;11.59;57.30
54329;BME280;40710;51.120;13.136;2023-04-25T00:25:26;98557.81;;;11.92;56.29
54329;BME280;40710;51.120;13.136;2023-04-25T00:27:50;98560.13;;;11.97;57.14
54329;BME280;40710;51.120;13.136;2023-04-25T00:30:15;98574.72;;;11.12;59.03
54329;BME280;40710;51.120;13.136;2023-04-25T00:32:40;98577.38;;;10.59;61.01
54329;BME280;40710;51.120;13.136;2023-04-25T00:35:04;98563.38;;;11.25;58.49
54329;BME280;40710;51.120;13.136;2023-04-25T00:37:30;98581.09;;;10.43;60.93
54329;BME280;40710;51.120;13.136;2023-04-25T00:39:54;98573.56;;;10.51;60.77
54329;BME280;40710;51.120;13.136;2023-04-25T00:42:20;98566.22;;;10.56;59.66
54329;BME280;40710;51.120;13.136;2023-04-25T00:44:45;98568.59;;;10.46;59.82
54329;BME280;40710;51.120;13.136;2023-04-25T00:47:11;98559.25;;;10.42;60.30
54329;BME280;40710;51.120;13.136;2023-04-25T00:49:35;98566.56;;;10.64;60.57
54329;BME280;40710;51.120;13.136;2023-04-25T00:52:00;98571.56;;;10.27;60.84
54329;BME280;40710;51.120;13.136;2023-04-25T00:54:25;98562.06;;;10.79;60.13
54329;BME280;40710;51.120;13.136;2023-04-25T00:56:49;98550.09;;;10.75;58.89
54329;BME280;40710;51.120;13.136;2023-04-25T00:59:14;98575.53;;;10.34;60.94
54329;BME280;40710;51.120;13.136;2023-04-25T01:01:39;98552.69;;;10.62;59.23
54329;BME280;40710;51.120;13.136;2023-04-25T01:04:05;98569.94;;;10.12;60.42
54329;BME280;40710;51.120;13.136;2023-04-25T01:06:31;98567.25;;;10.26;59.72
54329;BME280;40710;51.120;13.136;2023-04-25T01:08:56;98566.44;;;10.11;60.16
54329;BME280;40710;51.120;13.136;2023-04-25T01:11:21;98571.28;;;10.05;61.63
54329;BME280;40710;51.120;13.136;2023-04-25T01:13:45;98565.03;;;9.78;61.45
54329;BME280;40710;51.120;13.136;2023-04-25T01:16:10;98568.53;;;9.64;61.56
54329;BME280;40710;51.120;13.136;2023-04-25T01:18:35;98565.84;;;9.93;60.96
54329;BME280;40710;51.120;13.136;2023-04-25T01:21:07;98556.09;;;10.37;60.14
54329;BME280;40710;51.120;13.136;2023-04-25T01:23:33;98561.75;;;9.89;60.73
54329;BME280;40710;51.120;13.136;2023-04-25T01:25:58;98571.31;;;9.76;61.63
54329;BME280;40710;51.120;13.136;2023-04-25T01:28:22;98561.00;;;10.14;60.80
54329;BME280;40710;51.120;13.136;2023-04-25T01:30:47;98570.94;;;9.53;61.79
54329;BME280;40710;51.120;13.136;2023-04-25T01:33:13;98570.72;;;9.85;61.00
54329;BME280;40710;51.120;13.136;2023-04-25T01:35:38;98573.28;;;9.29;62.47
54329;BME280;40710;51.120;13.136;2023-04-25T01:38:02;98564.19;;;9.78;61.69
54329;BME280;40710;51.120;13.136;2023-04-25T01:40:27;98569.94;;;9.56;61.82
54329;BME280;40710;51.120;13.136;2023-04-25T01:42:52;98556.44;;;10.03;61.08
54329;BME280;40710;51.120;13.136;2023-04-25T01:45:17;98559.38;;;9.84;61.50
54329;BME280;40710;51.120;13.136;2023-04-25T01:47:42;98555.91;;;9.98;61.36
54329;BME280;40710;51.120;13.136;2023-04-25T01:50:08;98566.88;;;9.76;60.25
54329;BME280;40710;51.120;13.136;2023-04-25T01:52:33;98569.09;;;9.41;62.38
54329;BME280;40710;51.120;13.136;2023-04-25T01:54:59;98557.03;;;10.21;60.68
54329;BME280;40710;51.120;13.136;2023-04-25T01:57:25;98555.44;;;9.92;60.86
54329;BME280;40710;51.120;13.136;2023-04-25T01:59:49;98565.00;;;10.20;60.50
54329;BME280;40710;51.120;13.136;2023-04-25T02:02:14;98556.84;;;10.25;59.06
54329;BME280;40710;51.120;13.136;2023-04-25T02:04:38;98558.03;;;10.06;59.84
54329;BME280;40710;51.120;13.136;2023-04-25T02:07:03;98564.50;;;10.00;60.73
54329;BME280;40710;51.120;13.136;2023-04-25T02:09:28;98561.97;;;9.99;60.44
54329;BME280;40710;51.120;13.136;2023-04-25T02:11:52;98558.38;;;10.14;59.64
54329;BME280;40710;51.120;13.136;2023-04-25T02:14:17;98561.84;;;10.15;59.59
54329;BME280;40710;51.120;13.136;2023-04-25T02:16:41;98560.97;;;10.01;59.82
54329;BME280;40710;51.120;13.136;2023-04-25T02:19:07;98559.38;;;10.26;59.98
54329;BME280;40710;51.120;13.136;2023-04-25T02:21:32;98551.31;;;10.69;58.58
54329;BME280;40710;51.120;13.136;2023-04-25T02:23:59;98567.78;;;9.62;60.63
54329;BME280;40710;51.120;13.136;2023-04-25T02:26:24;98547.31;;;10.64;58.61
54329;BME280;40710;51.120;13.136;2023-04-25T02:28:49;98554.84;;;10.43;58.45
54329;BME280;40710;51.120;13.136;2023-04-25T02:31:14;98542.53;;;11.47;55.77
54329;BME280;40710;51.120;13.136;2023-04-25T02:33:39;98538.75;;;11.26;55.95
54329;BME280;40710;51.120;13.136;2023-04-25T02:36:03;98544.84;;;11.39;55.33
54329;BME280;40710;51.120;13.136;2023-04-25T02:38:28;98539.47;;;11.41;55.92
54329;BME280;40710;51.120;13.136;2023-04-25T02:40:53;98535.16;;;11.27;56.12
54329;BME280;40710;51.120;13.136;2023-04-25T02:43:17;98546.13;;;10.42;58.26
54329;BME280;40710;51.120;13.136;2023-04-25T02:45:42;98544.00;;;10.20;58.79
54329;BME280;40710;51.120;13.136;2023-04-25T02:48:06;98544.56;;;10.52;58.21
54329;BME280;40710;51.120;13.136;2023-04-25T02:50:31;98539.63;;;10.48;57.53
54329;BME280;40710;51.120;13.136;2023-04-25T02:52:55;98530.31;;;11.08;56.74
54329;BME280;40710;51.120;13.136;2023-04-25T02:55:20;98525.72;;;11.24;56.24
54329;BME280;40710;51.120;13.136;2023-04-25T02:57:44;98524.44;;;11.04;56.29
54329;BME280;40710;51.120;13.136;2023-04-25T03:00:09;98527.19;;;10.90;57.17
54329;BME280;40710;51.120;13.136;2023-04-25T03:02:35;98522.97;;;11.13;56.51
54329;BME280;40710;51.120;13.136;2023-04-25T03:05:00;98527.28;;;10.88;57.23
54329;BME280;40710;51.120;13.136;2023-04-25T03:07:24;98529.00;;;11.15;55.92
54329;BME280;40710;51.120;13.136;2023-04-25T03:09:49;98526.34;;;11.28;55.38
54329;BME280;40710;51.120;13.136;2023-04-25T03:12:14;98538.84;;;10.86;56.72
54329;BME280;40710;51.120;13.136;2023-04-25T03:14:38;98531.59;;;10.76;57.00
54329;BME280;40710;51.120;13.136;2023-04-25T03:17:03;98536.16;;;10.47;57.83
54329;BME280;40710;51.120;13.136;2023-04-25T03:19:28;98533.44;;;10.62;57.58
54329;BME280;40710;51.120;13.136;2023-04-25T03:21:52;98534.56;;;10.97;56.63
54329;BME280;40710;51.120;13.136;2023-04-25T03:24:17;98537.72;;;10.22;57.93
54329;BME280;40710;51.120;13.136;2023-04-25T03:26:42;98528.28;;;10.47;57.69
54329;BME280;40710;51.120;13.136;2023-04-25T03:29:07;98542.84;;;9.70;59.41
54329;BME280;40710;51.120;13.136;2023-04-25T03:31:31;98539.91;;;9.74;58.89
54329;BME280;40710;51.120;13.136;2023-04-25T03:33:56;98527.59;;;10.84;57.83
54329;BME280;40710;51.120;13.136;2023-04-25T03:36:20;98522.03;;;11.01;56.11
54329;BME280;40710;51.120;13.136;2023-04-25T03:38:45;98524.44;;;11.04;55.69
54329;BME280;40710;51.120;13.136;2023-04-25T03:41:09;98531.53;;;10.51;56.16
54329;BME280;40710;51.120;13.136;2023-04-25T03:43:34;98525.38;;;10.65;56.05
54329;BME280;40710;51.120;13.136;2023-04-25T03:45:59;98526.88;;;10.94;55.76
54329;BME280;40710;51.120;13.136;2023-04-25T03:48:25;98528.97;;;10.89;55.76
54329;BME280;40710;51.120;13.136;2023-04-25T03:50:50;98534.97;;;11.04;55.63
54329;BME280;40710;51.120;13.136;2023-04-25T03:53:14;98528.44;;;11.35;54.97
54329;BME280;40710;51.120;13.136;2023-04-25T03:55:39;98532.22;;;11.31;54.41
54329;BME280;40710;51.120;13.136;2023-04-25T03:58:04;98536.53;;;11.20;54.45
54329;BME280;40710;51.120;13.136;2023-04-25T04:00:29;98531.19;;;11.08;54.50
54329;BME280;40710;51.120;13.136;2023-04-25T04:02:53;98538.50;;;10.52;56.48
54329;BME280;40710;51.120;13.136;2023-04-25T04:05:18;98534.97;;;10.91;54.62
54329;BME280;40710;51.120;13.136;2023-04-25T04:07:43;98532.03;;;11.09;54.69
54329;BME280;40710;51.120;13.136;2023-04-25T04:10:08;98533.78;;;10.83;55.24
54329;BME280;40710;51.120;13.136;2023-04-25T04:12:33;98534.72;;;10.82;55.79
54329;BME280;40710;51.120;13.136;2023-04-25T04:14:57;98537.16;;;10.72;55.48
54329;BME280;40710;51.120;13.136;2023-04-25T04:17:22;98540.84;;;11.08;54.71
54329;BME280;40710;51.120;13.136;2023-04-25T04:19:46;98543.38;;;10.96;55.07
54329;BME280;40710;51.120;13.136;2023-04-25T04:22:11;98530.56;;;11.05;54.58
54329;BME280;40710;51.120;13.136;2023-04-25T04:24:35;98526.94;;;10.67;55.23
54329;BME280;40710;51.120;13.136;2023-04-25T04:27:01;98539.34;;;10.65;55.50
54329;BME280;40710;51.120;13.136;2023-04-25T04:29:25;98543.31;;;10.58;56.17
54329;BME280;40710;51.120;13.136;2023-04-25T04:31:51;98537.78;;;10.88;55.61
54329;BME280;40710;51.120;13.136;2023-04-25T04:34:17;98537.88;;;10.87;55.29
54329;BME280;40710;51.120;13.136;2023-04-25T04:36:42;98542.75;;;10.80;55.43
54329;BME280;40710;51.120;13.136;2023-04-25T04:39:07;98546.94;;;10.70;55.97
54329;BME280;40710;51.120;13.136;2023-04-25T04:41:33;98546.94;;;10.43;55.95
54329;BME280;40710;51.120;13.136;2023-04-25T04:43:57;98543.34;;;10.71;55.76
54329;BME280;40710;51.120;13.136;2023-04-25T04:46:22;98545.22;;;10.56;55.70
54329;BME280;40710;51.120;13.136;2023-04-25T04:48:48;98546.63;;;10.34;56.31
54329;BME280;40710;51.120;13.136;2023-04-25T04:51:13;98548.88;;;11.06;54.90
54329;BME280;40710;51.120;13.136;2023-04-25T04:53:37;98554.13;;;11.06;54.62
54329;BME280;40710;51.120;13.136;2023-04-25T04:56:02;98547.78;;;11.22;54.08
54329;BME280;40710;51.120;13.136;2023-04-25T04:58:26;98550.97;;;11.01;54.61
54329;BME280;40710;51.120;13.136;2023-04-25T05:00:53;98553.78;;;11.37;53.60
54329;BME280;40710;51.120;13.136;2023-04-25T05:03:18;98551.06;;;11.12;54.20
54329;BME280;40710;51.120;13.136;2023-04-25T05:05:42;98553.66;;;10.87;54.61
54329;BME280;40710;51.120;13.136;2023-04-25T05:08:07;98556.03;;;11.17;54.32
54329;BME280;40710;51.120;13.136;2023-04-25T05:10:32;98555.78;;;11.20;53.88
54329;BME280;40710;51.120;13.136;2023-04-25T05:12:56;98562.50;;;10.98;54.42
54329;BME280;40710;51.120;13.136;2023-04-25T05:15:21;98561.06;;;11.07;53.84
54329;BME280;40710;51.120;13.136;2023-04-25T05:17:45;98550.19;;;10.99;53.77
54329;BME280;40710;51.120;13.136;2023-04-25T05:20:10;98563.88;;;10.78;53.84
54329;BME280;40710;51.120;13.136;2023-04-25T05:22:35;98565.34;;;10.83;54.60
54329;BME280;40710;51.120;13.136;2023-04-25T05:25:00;98557.69;;;10.92;54.52
54329;BME280;40710;51.120;13.136;2023-04-25T05:27:24;98552.00;;;11.37;53.03
54329;BME280;40710;51.120;13.136;2023-04-25T05:29:49;98559.97;;;10.97;53.74
54329;BME280;40710;51.120;13.136;2023-04-25T05:32:13;98554.03;;;11.21;53.04
54329;BME280;40710;51.120;13.136;2023-04-25T05:34:38;98549.38;;;11.24;53.49
54329;BME280;40710;51.120;13.136;2023-04-25T05:37:02;98553.50;;;11.15;53.41
54329;BME280;40710;51.120;13.136;2023-04-25T05:39:27;98559.69;;;11.40;52.41
54329;BME280;40710;51.120;13.136;2023-04-25T05:41:52;98551.38;;;11.21;52.65
54329;BME280;40710;51.120;13.136;2023-04-25T05:44:16;98550.28;;;11.62;52.17
54329;BME280;40710;51.120;13.136;2023-04-25T05:46:41;98558.50;;;11.44;52.76
54329;BME280;40710;51.120;13.136;2023-04-25T05:49:05;98561.00;;;11.59;51.89
54329;BME280;40710;51.120;13.136;2023-04-25T05:51:30;98548.81;;;12.07;50.80
54329;BME280;40710;51.120;13.136;2023-04-25T05:53:55;98559.53;;;11.80;50.88
54329;BME280;40710;51.120;13.136;2023-04-25T05:56:20;98555.97;;;11.68;51.38
54329;BME280;40710;51.120;13.136;2023-04-25T05:58:44;98567.97;;;11.60;51.61
54329;BME280;40710;51.120;13.136;2023-04-25T06:01:09;98565.81;;;12.03;50.09
54329;BME280;40710;51.120;13.136;2023-04-25T06:03:34;98563.47;;;12.12;50.00
54329;BME280;40710;51.120;13.136;2023-04-25T06:05:58;98564.41;;;11.35;51.53
54329;BME280;40710;51.120;13.136;2023-04-25T06:08:23;98560.94;;;12.10;49.76
54329;BME280;40710;51.120;13.136;2023-04-25T06:10:47;98560.28;;;12.90;48.61
54329;BME280;40710;51.120;13.136;2023-04-25T06:13:12;98561.38;;;12.28;48.92
54329;BME280;40710;51.120;13.136;2023-04-25T06:15:37;98567.53;;;11.79;50.12
54329;BME280;40710;51.120;13.136;2023-04-25T06:18:01;98567.03;;;12.10;49.52
54329;BME280;40710;51.120;13.136;2023-04-25T06:20:26;98561.81;;;12.46;48.14
54329;BME280;40710;51.120;13.136;2023-04-25T06:22:51;98555.53;;;12.36;48.71
54329;BME280;40710;51.120;13.136;2023-04-25T06:25:16;98560.53;;;12.03;50.27
54329;BME280;40710;51.120;13.136;2023-04-25T06:27:41;98560.66;;;12.26;48.61
54329;BME280;40710;51.120;13.136;2023-04-25T06:30:06;98562.38;;;12.14;48.98
54329;BME280;40710;51.120;13.136;2023-04-25T06:32:31;98571.91;;;11.15;49.94
54329;BME280;40710;51.120;13.136;2023-04-25T06:34:55;98558.56;;;11.94;49.83
54329;BME280;40710;51.120;13.136;2023-04-25T06:37:20;98558.00;;;12.02;49.36
54329;BME280;40710;51.120;13.136;2023-04-25T06:39:44;98552.09;;;12.71;47.88
54329;BME280;40710;51.120;13.136;2023-04-25T06:42:09;98546.66;;;13.08;46.86
54329;BME280;40710;51.120;13.136;2023-04-25T06:44:34;98560.09;;;13.04;47.70
54329;BME280;40710;51.120;13.136;2023-04-25T06:46:58;98561.28;;;13.36;46.44
54329;BME280;40710;51.120;13.136;2023-04-25T06:49:23;98553.72;;;12.60;47.19
54329;BME280;40710;51.120;13.136;2023-04-25T06:51:48;98564.19;;;13.09;47.01
54329;BME280;40710;51.120;13.136;2023-04-25T06:54:12;98560.19;;;13.38;45.88
54329;BME280;40710;51.120;13.136;2023-04-25T06:56:37;98553.28;;;14.04;44.34
54329;BME280;40710;51.120;13.136;2023-04-25T06:59:01;98548.06;;;13.70;45.17
54329;BME280;40710;51.120;13.136;2023-04-25T07:01:26;98563.63;;;13.95;45.63
54329;BME280;40710;51.120;13.136;2023-04-25T07:03:50;98563.56;;;13.05;46.46
54329;BME280;40710;51.120;13.136;2023-04-25T07:06:15;98571.53;;;12.45;47.24
54329;BME280;40710;51.120;13.136;2023-04-25T07:08:39;98553.78;;;14.41;44.52
54329;BME280;40710;51.120;13.136;2023-04-25T07:11:04;98553.59;;;14.86;43.20
54329;BME280;40710;51.120;13.136;2023-04-25T07:13:29;98547.53;;;15.17;42.73
54329;BME280;40710;51.120;13.136;2023-04-25T07:15:54;98560.56;;;14.55;43.82
54329;BME280;40710;51.120;13.136;2023-04-25T07:18:19;98553.28;;;14.80;43.02
54329;BME280;40710;51.120;13.136;2023-04-25T07:20:43;98559.59;;;14.56;43.71
54329;BME280;40710;51.120;13.136;2023-04-25T07:23:08;98560.13;;;14.06;43.76
54329;BME280;40710;51.120;13.136;2023-04-25T07:25:32;98552.63;;;14.23;44.06
54329;BME280;40710;51.120;13.136;2023-04-25T07:27:57;98559.63;;;14.88;42.85
54329;BME280;40710;51.120;13.136;2023-04-25T07:30:22;98555.22;;;14.99;42.70
54329;BME280;40710;51.120;13.136;2023-04-25T07:32:47;98558.88;;;14.65;42.71
54329;BME280;40710;51.120;13.136;2023-04-25T07:35:11;98544.91;;;15.88;41.61
54329;BME280;40710;51.120;13.136;2023-04-25T07:37:36;98563.94;;;15.72;42.11
54329;BME280;40710;51.120;13.136;2023-04-25T07:40:02;98557.53;;;16.05;41.04
54329;BME280;40710;51.120;13.136;2023-04-25T07:42:28;98574.38;;;14.91;43.02
54329;BME280;40710;51.120;13.136;2023-04-25T07:44:52;98593.06;;;13.91;45.19
54329;BME280;40710;51.120;13.136;2023-04-25T07:47:17;98578.56;;;14.72;43.50
54329;BME280;40710;51.120;13.136;2023-04-25T07:49:43;98574.00;;;14.74;43.18
54329;BME280;40710;51.120;13.136;2023-04-25T07:52:07;98586.75;;;14.14;44.89
54329;BME280;40710;51.120;13.136;2023-04-25T07:54:32;98584.59;;;14.96;43.63
54329;BME280;40710;51.120;13.136;2023-04-25T07:56:57;98579.75;;;15.01;42.50
54329;BME280;40710;51.120;13.136;2023-04-25T07:59:21;98568.06;;;16.95;40.34
54329;BME280;40710;51.120;13.136;2023-04-25T08:01:46;98569.03;;;16.74;39.72
54329;BME280;40710;51.120;13.136;2023-04-25T08:04:10;98582.31;;;15.85;41.48
54329;BME280;40710;51.120;13.136;2023-04-25T08:06:35;98571.97;;;16.71;40.40
54329;BME280;40710;51.120;13.136;2023-04-25T08:09:00;98586.50;;;14.93;43.33
54329;BME280;40710;51.120;13.136;2023-04-25T08:11:24;98582.63;;;15.40;42.53
54329;BME280;40710;51.120;13.136;2023-04-25T08:13:49;98592.53;;;14.96;43.50
54329;BME280;40710;51.120;13.136;2023-04-25T08:16:14;98605.78;;;14.84;44.30
54329;BME280;40710;51.120;13.136;2023-04-25T08:18:39;98608.03;;;14.68;43.97
54329;BME280;40710;51.120;13.136;2023-04-25T08:21:03;98603.16;;;15.05;43.09
54329;BME280;40710;51.120;13.136;2023-04-25T08:23:28;98624.94;;;14.33;44.62
54329;BME280;40710;51.120;13.136;2023-04-25T08:25:52;98602.50;;;14.71;44.00
54329;BME280;40710;51.120;13.136;2023-04-25T08:28:17;98629.28;;;14.00;45.81
54329;BME280;40710;51.120;13.136;2023-04-25T08:30:41;98622.34;;;14.54;44.99
54329;BME280;40710;51.120;13.136;2023-04-25T08:33:06;98637.09;;;14.24;45.42
54329;BME280;40710;51.120;13.136;2023-04-25T08:35:30;98629.47;;;14.42;45.00
54329;BME280;40710;51.120;13.136;2023-04-25T08:37:57;98631.06;;;14.77;44.37
54329;BME280;40710;51.120;13.136;2023-04-25T08:40:22;98633.38;;;14.15;46.11
54329;BME280;40710;51.120;13.136;2023-04-25T08:42:50;98634.25;;;14.71;45.09
54329;BME280;40710;51.120;13.136;2023-04-25T08:45:15;98630.16;;;14.67;44.91
54329;BME280;40710;51.120;13.136;2023-04-25T08:47:43;98646.84;;;14.01;46.09
54329;BME280;40710;51.120;13.136;2023-04-25T08:50:09;98651.50;;;14.09;46.19
54329;BME280;40710;51.120;13.136;2023-04-25T08:52:39;98654.16;;;14.09;46.08
54329;BME280;40710;51.120;13.136;2023-04-25T08:55:09;98658.25;;;14.02;46.78
54329;BME280;40710;51.120;13.136;2023-04-25T08:57:35;98653.78;;;14.36;46.28
54329;BME280;40710;51.120;13.136;2023-04-25T09:00:01;98648.47;;;14.36;45.64
54329;BME280;40710;51.120;13.136;2023-04-25T09:02:27;98666.50;;;13.52;47.64
54329;BME280;40710;51.120;13.136;2023-04-25T09:04:53;98671.50;;;13.08;48.45
54329;BME280;40710;51.120;13.136;2023-04-25T09:07:18;98666.22;;;13.43;48.06
54329;BME280;40710;51.120;13.136;2023-04-25T09:09:45;98663.50;;;14.24;46.73
54329;BME280;40710;51.120;13.136;2023-04-25T09:12:10;98663.97;;;14.41;46.13
54329;BME280;40710;51.120;13.136;2023-04-25T09:14:34;98676.19;;;14.53;47.08
54329;BME280;40710;51.120;13.136;2023-04-25T09:17:01;98677.53;;;14.47;46.82
54329;BME280;40710;51.120;13.136;2023-04-25T09:19:35;98670.69;;;14.67;46.37
54329;BME280;40710;51.120;13.136;2023-04-25T09:22:02;98690.03;;;14.34;46.22
54329;BME280;40710;51.120;13.136;2023-04-25T09:24:34;98681.69;;;14.84;45.81
54329;BME280;40710;51.120;13.136;2023-04-25T09:26:59;98685.88;;;14.86;45.62
54329;BME280;40710;51.120;13.136;2023-04-25T09:29:34;98714.25;;;12.52;50.54
54329;BME280;40710;51.120;13.136;2023-04-25T09:32:22;98703.88;;;14.15;47.79
54329;BME280;40710;51.120;13.136;2023-04-25T09:34:51;98709.38;;;13.78;47.67
54329;BME280;40710;51.120;13.136;2023-04-25T09:37:21;98712.94;;;13.54;48.02
54329;BME280;40710;51.120;13.136;2023-04-25T09:39:48;98703.94;;;13.57;47.75
54329;BME280;40710;51.120;13.136;2023-04-25T09:42:14;98695.09;;;13.92;47.13
54329;BME280;40710;51.120;13.136;2023-04-25T09:44:44;98710.00;;;13.35;48.57
54329;BME280;40710;51.120;13.136;2023-04-25T09:47:10;98705.50;;;13.48;48.33
54329;BME280;40710;51.120;13.136;2023-04-25T09:49:39;98720.50;;;12.99;49.87
54329;BME280;40710;51.120;13.136;2023-04-25T09:52:05;98729.34;;;12.98;49.68
54329;BME280;40710;51.120;13.136;2023-04-25T09:54:30;98730.34;;;12.97;50.18
54329;BME280;40710;51.120;13.136;2023-04-25T09:56:54;98734.03;;;12.58;51.38
54329;BME280;40710;51.120;13.136;2023-04-25T09:59:22;98738.50;;;12.44;51.46
54329;BME280;40710;51.120;13.136;2023-04-25T10:01:48;98729.84;;;12.42;51.44
54329;BME280;40710;51.120;13.136;2023-04-25T10:04:19;98728.97;;;13.16;49.89
54329;BME280;40710;51.120;13.136;2023-04-25T10:06:45;98732.53;;;13.74;48.93
54329;BME280;40710;51.120;13.136;2023-04-25T10:09:11;98724.75;;;13.37;48.29
54329;BME280;40710;51.120;13.136;2023-04-25T10:11:38;98712.38;;;14.07;48.07
54329;BME280;40710;51.120;13.136;2023-04-25T10:14:04;98718.41;;;14.09;45.95
54329;BME280;40710;51.120;13.136;2023-04-25T10:16:29;98724.38;;;13.77;46.80
54329;BME280;40710;51.120;13.136;2023-04-25T10:18:54;98724.19;;;13.45;47.07
54329;BME280;40710;51.120;13.136;2023-04-25T10:21:21;98724.78;;;13.13;47.64
54329;BME280;40710;51.120;13.136;2023-04-25T10:23:46;98727.56;;;13.58;46.39
54329;BME280;40710;51.120;13.136;2023-04-25T10:26:12;98735.34;;;13.00;47.21
54329;BME280;40710;51.120;13.136;2023-04-25T10:31:21;98729.34;;;14.05;45.62
54329;BME280;40710;51.120;13.136;2023-04-25T10:33:45;98746.00;;;13.36;46.45
54329;BME280;40710;51.120;13.136;2023-04-25T10:36:31;98752.13;;;12.75;47.43
54329;BME280;40710;51.120;13.136;2023-04-25T10:38:56;98737.28;;;12.98;45.85
54329;BME280;40710;51.120;13.136;2023-04-25T10:41:22;98741.81;;;13.20;46.74
54329;BME280;40710;51.120;13.136;2023-04-25T10:43:49;98746.00;;;13.36;47.45
54329;BME280;40710;51.120;13.136;2023-04-25T10:48:54;98739.91;;;13.22;45.56
54329;BME280;40710;51.120;13.136;2023-04-25T10:53:48;98743.72;;;13.78;44.41
54329;BME280;40710;51.120;13.136;2023-04-25T10:56:42;98743.84;;;13.88;44.69
54329;BME280;40710;51.120;13.136;2023-04-25T11:01:46;98747.25;;;13.54;45.43
54329;BME280;40710;51.120;13.136;2023-04-25T11:09:33;98762.00;;;12.84;46.38
54329;BME280;40710;51.120;13.136;2023-04-25T11:11:58;98764.84;;;13.42;45.47
54329;BME280;40710;51.120;13.136;2023-04-25T11:14:25;98764.97;;;13.17;45.77
54329;BME280;40710;51.120;13.136;2023-04-25T11:16:57;98750.25;;;14.19;43.79
54329;BME280;40710;51.120;13.136;2023-04-25T11:19:23;98762.47;;;13.27;45.25
54329;BME280;40710;51.120;13.136;2023-04-25T11:21:48;98755.03;;;14.03;43.50
54329;BME280;40710;51.120;13.136;2023-04-25T11:24:12;98754.44;;;14.10;43.60
54329;BME280;40710;51.120;13.136;2023-04-25T11:26:37;98755.22;;;13.66;43.64
54329;BME280;40710;51.120;13.136;2023-04-25T11:29:02;98760.94;;;14.06;43.20
54329;BME280;40710;51.120;13.136;2023-04-25T11:31:27;98755.63;;;14.17;42.82
54329;BME280;40710;51.120;13.136;2023-04-25T11:33:54;98752.75;;;14.88;43.51
54329;BME280;40710;51.120;13.136;2023-04-25T11:36:22;98760.44;;;14.35;42.27
54329;BME280;40710;51.120;13.136;2023-04-25T11:38:47;98762.84;;;14.49;41.70
54329;BME280;40710;51.120;13.136;2023-04-25T11:41:11;98766.66;;;14.00;43.59
54329;BME280;40710;51.120;13.136;2023-04-25T11:43:36;98769.09;;;14.14;43.28
54329;BME280;40710;51.120;13.136;2023-04-25T11:46:06;98766.47;;;14.60;42.63
54329;BME280;40710;51.120;13.136;2023-04-25T11:48:37;98758.28;;;14.85;41.86
54329;BME280;40710;51.120;13.136;2023-04-25T11:51:02;98775.09;;;14.96;41.65
54329;BME280;40710;51.120;13.136;2023-04-25T11:53:27;98769.72;;;14.52;42.31
54329;BME280;40710;51.120;13.136;2023-04-25T11:55:52;98774.47;;;14.02;43.04
54329;BME280;40710;51.120;13.136;2023-04-25T11:58:17;98785.19;;;14.11;43.06
54329;BME280;40710;51.120;13.136;2023-04-25T12:00:42;98791.84;;;13.22;44.72
54329;BME280;40710;51.120;13.136;2023-04-25T12:03:09;98790.63;;;13.15;44.82
54329;BME280;40710;51.120;13.136;2023-04-25T12:05:33;98773.28;;;14.06;43.07
54329;BME280;40710;51.120;13.136;2023-04-25T12:08:09;98778.09;;;14.23;43.30
54329;BME280;40710;51.120;13.136;2023-04-25T12:10:38;98790.97;;;14.50;43.15
54329;BME280;40710;51.120;13.136;2023-04-25T12:13:21;98780.63;;;14.13;43.57
54329;BME280;40710;51.120;13.136;2023-04-25T12:15:45;98777.25;;;14.34;42.73
54329;BME280;40710;51.120;13.136;2023-04-25T12:18:10;98781.53;;;13.43;44.21
54329;BME280;40710;51.120;13.136;2023-04-25T12:20:35;98789.16;;;14.28;43.42
54329;BME280;40710;51.120;13.136;2023-04-25T12:22:59;98796.06;;;13.49;44.44
54329;BME280;40710;51.120;13.136;2023-04-25T12:25:44;98793.56;;;13.94;43.92
54329;BME280;40710;51.120;13.136;2023-04-25T12:28:19;98803.72;;;13.76;44.37
54329;BME280;40710;51.120;13.136;2023-04-25T12:31:02;98820.56;;;13.14;46.22
54329;BME280;40710;51.120;13.136;2023-04-25T12:33:30;98804.91;;;13.72;45.13
54329;BME280;40710;51.120;13.136;2023-04-25T12:35:55;98808.88;;;13.42;45.50
54329;BME280;40710;51.120;13.136;2023-04-25T12:38:28;98807.13;;;13.89;44.69
54329;BME280;40710;51.120;13.136;2023-04-25T12:40:54;98814.16;;;13.77;44.62
54329;BME280;40710;51.120;13.136;2023-04-25T12:43:19;98808.75;;;13.79;44.35
54329;BME280;40710;51.120;13.136;2023-04-25T12:45:51;98814.50;;;14.08;44.34
54329;BME280;40710;51.120;13.136;2023-04-25T12:48:15;98823.94;;;13.16;45.32
54329;BME280;40710;51.120;13.136;2023-04-25T12:50:40;98819.56;;;13.76;44.22
54329;BME280;40710;51.120;13.136;2023-04-25T12:53:05;98820.94;;;14.04;43.87
54329;BME280;40710;51.120;13.136;2023-04-25T12:55:29;98822.84;;;13.55;45.14
54329;BME280;40710;51.120;13.136;2023-04-25T12:57:54;98811.31;;;13.92;44.31